Time;durP1;ratioP1;P1;durP2;ratioP2;P2;SDS_P1;SDS_P2;PMS_P1;PMS_P2;Temp;Humidity;BMP_temperature;BMP_pressure;BME280_temperature;BME280_humidity;BME280_pressure;Samples;Min_cycle;Max_cycle;Signal;HPM_P1;HPM_P2
2022/03/19 00:00:12;;;;;;;59.60;36.67;;;;;;;5.48;100.00;98410.19;5046559;28;20072;-50
2022/03/19 00:02:40;;;;;;;64.10;37.70;;;;;;;5.48;100.00;98416.28;5044460;28;20088;-51
2022/03/19 00:05:09;;;;;;;64.30;36.45;;;;;;;5.35;100.00;98420.31;5046664;28;20072;-52
2022/03/19 00:07:40;;;;;;;66.25;39.55;;;;;;;5.25;100.00;98424.22;5045733;28;20072;-50
2022/03/19 00:10:10;;;;;;;70.18;38.72;;;;;;;5.27;100.00;98421.56;5048390;28;20080;-50
2022/03/19 00:12:39;;;;;;;70.00;40.97;;;;;;;5.33;100.00;98424.75;5046898;28;20061;-49
2022/03/19 00:15:09;;;;;;;78.28;43.25;;;;;;;5.37;100.00;98415.03;5046229;28;20060;-47
2022/03/19 00:17:38;;;;;;;73.15;40.40;;;;;;;5.56;100.00;98417.72;5045433;28;20092;-49
2022/03/19 00:20:07;;;;;;;76.10;41.50;;;;;;;5.45;100.00;98423.41;5049880;28;20068;-49
2022/03/19 00:22:36;;;;;;;72.93;39.65;;;;;;;5.29;100.00;98415.34;5051512;28;20073;-48
2022/03/19 00:25:05;;;;;;;78.30;46.10;;;;;;;5.27;100.00;98406.72;5050645;28;20559;-51
2022/03/19 00:27:34;;;;;;;79.28;44.95;;;;;;;5.23;100.00;98408.63;5051400;28;20060;-50
2022/03/19 00:30:03;;;;;;;86.32;46.35;;;;;;;5.28;100.00;98403.19;5050974;28;20500;-49
2022/03/19 00:32:31;;;;;;;85.30;46.00;;;;;;;5.23;100.00;98407.78;5052177;28;20083;-48
2022/03/19 00:34:59;;;;;;;85.45;45.05;;;;;;;5.37;100.00;98402.81;5051340;28;20083;-50
2022/03/19 00:37:27;;;;;;;82.13;44.40;;;;;;;5.12;100.00;98405.56;5055022;28;20091;-50
2022/03/19 00:39:56;;;;;;;88.40;49.60;;;;;;;5.16;100.00;98401.06;5047369;28;20071;-50
2022/03/19 00:42:24;;;;;;;85.38;44.92;;;;;;;5.06;100.00;98400.63;5051182;28;20610;-50
2022/03/19 00:44:54;;;;;;;88.63;46.28;;;;;;;5.16;100.00;98409.78;5047008;28;20077;-50
2022/03/19 00:47:22;;;;;;;85.05;46.10;;;;;;;5.10;100.00;98401.34;5031136;28;20085;-47
2022/03/19 00:49:50;;;;;;;87.75;43.47;;;;;;;4.99;100.00;98399.16;5048431;28;20061;-54
2022/03/19 00:52:18;;;;;;;88.78;47.60;;;;;;;5.06;100.00;98395.38;5051737;28;20931;-50
2022/03/19 00:54:47;;;;;;;88.80;50.13;;;;;;;4.97;100.00;98390.50;5050882;28;20069;-51
2022/03/19 00:57:15;;;;;;;93.72;47.85;;;;;;;5.05;100.00;98391.03;5050923;28;20068;-45
2022/03/19 00:59:43;;;;;;;91.85;49.70;;;;;;;4.94;100.00;98388.88;5048473;28;20068;-48
2022/03/19 01:02:13;;;;;;;92.47;49.00;;;;;;;4.99;100.00;98386.94;5049623;28;20462;-50
2022/03/19 01:04:41;;;;;;;87.97;47.20;;;;;;;5.00;100.00;98379.94;5050336;28;20057;-53
2022/03/19 01:07:09;;;;;;;90.80;47.60;;;;;;;5.06;100.00;98378.81;5051950;28;20072;-51
2022/03/19 01:09:38;;;;;;;85.45;46.47;;;;;;;4.89;100.00;98372.53;5049625;28;20507;-48
2022/03/19 01:12:07;;;;;;;87.65;46.67;;;;;;;4.91;100.00;98375.91;5050259;28;20076;-47
2022/03/19 01:14:35;;;;;;;87.22;47.30;;;;;;;4.82;100.00;98370.22;5051936;28;20080;-45
2022/03/19 01:17:04;;;;;;;90.47;49.65;;;;;;;4.82;100.00;98365.84;5049976;28;20056;-46
2022/03/19 01:22:19;;;;;;;90.47;43.60;;;;;;;4.57;100.00;98362.50;5026656;28;20464;-49
2022/03/19 01:24:47;;;;;;;95.95;53.20;;;;;;;4.54;100.00;98363.47;5050631;28;20064;-45
2022/03/19 01:27:16;;;;;;;96.88;51.33;;;;;;;4.44;100.00;98363.00;5047219;28;20057;-50
2022/03/19 01:29:44;;;;;;;93.97;50.35;;;;;;;4.74;100.00;98362.69;5051581;28;20085;-49
2022/03/19 01:32:13;;;;;;;89.93;47.20;;;;;;;4.76;100.00;98358.25;5048359;28;20091;-46
2022/03/19 01:34:42;;;;;;;97.40;48.30;;;;;;;4.78;100.00;98359.03;5031794;28;20072;-46
2022/03/19 01:37:11;;;;;;;97.47;48.55;;;;;;;4.42;100.00;98358.75;5045733;28;20064;-52
2022/03/19 01:39:39;;;;;;;97.07;49.25;;;;;;;4.50;100.00;98356.66;5049814;28;20080;-53
2022/03/19 01:42:07;;;;;;;93.82;47.20;;;;;;;4.44;100.00;98349.06;5049737;28;20061;-49
2022/03/19 01:44:36;;;;;;;93.82;47.72;;;;;;;4.46;100.00;98342.88;5050090;28;20080;-49
2022/03/19 01:47:07;;;;;;;92.85;48.95;;;;;;;4.46;100.00;98339.41;5044611;28;20076;-48
2022/03/19 01:49:36;;;;;;;87.30;47.67;;;;;;;4.31;100.00;98351.31;5048505;28;20061;-50
2022/03/19 01:52:06;;;;;;;91.75;48.03;;;;;;;4.24;100.00;98339.41;5045707;28;20606;-50
2022/03/19 01:54:37;;;;;;;90.22;46.83;;;;;;;4.29;100.00;98345.28;5047085;28;20502;-48
2022/03/19 01:57:06;;;;;;;88.10;46.50;;;;;;;4.43;100.00;98350.81;5045570;28;20064;-48
2022/03/19 01:59:36;;;;;;;90.90;46.22;;;;;;;4.30;100.00;98336.53;5049497;28;20112;-48
2022/03/19 02:02:06;;;;;;;90.00;45.83;;;;;;;4.44;100.00;98344.72;5051371;28;20087;-52
2022/03/19 02:04:35;;;;;;;89.82;47.60;;;;;;;4.45;100.00;98343.78;5046604;28;20079;-46
2022/03/19 02:07:07;;;;;;;68.82;35.08;;;;;;;4.44;100.00;98346.44;5046475;28;20093;-50
2022/03/19 02:09:36;;;;;;;95.85;49.58;;;;;;;4.54;100.00;98345.19;5056517;28;20551;-47
2022/03/19 02:12:05;;;;;;;85.18;49.13;;;;;;;4.54;100.00;98332.13;5048873;28;20096;-52
2022/03/19 02:14:34;;;;;;;81.07;43.67;;;;;;;4.69;100.00;98335.91;5049789;28;20087;-50
2022/03/19 02:17:04;;;;;;;82.18;42.70;;;;;;;4.79;100.00;98339.84;5048891;28;20494;-45
2022/03/19 02:19:33;;;;;;;79.18;44.00;;;;;;;4.55;100.00;98333.84;5049025;28;20060;-46
2022/03/19 02:22:02;;;;;;;78.88;42.97;;;;;;;4.76;100.00;98335.56;5048809;28;20069;-51
2022/03/19 02:27:17;;;;;;;73.63;39.03;;;;;;;4.63;100.00;98320.47;5048685;28;20072;-50
2022/03/19 02:29:45;;;;;;;80.18;39.60;;;;;;;4.76;100.00;98317.28;5048582;28;20073;-51
2022/03/19 02:32:14;;;;;;;69.22;40.47;;;;;;;4.72;100.00;98312.25;5048773;28;20550;-54
2022/03/19 02:34:42;;;;;;;74.97;39.97;;;;;;;4.72;100.00;98313.09;5048384;28;20065;-50
2022/03/19 02:37:10;;;;;;;72.93;40.55;;;;;;;4.60;100.00;98307.50;5049040;28;20135;-50
2022/03/19 02:39:40;;;;;;;81.78;41.58;;;;;;;4.53;100.00;98299.06;5047807;28;20526;-49
2022/03/19 02:42:08;;;;;;;78.57;38.95;;;;;;;4.31;100.00;98296.47;5050343;28;20072;-52
2022/03/19 02:44:37;;;;;;;75.25;40.63;;;;;;;4.30;100.00;98297.38;5048590;28;20072;-48
2022/03/19 02:47:07;;;;;;;75.00;40.85;;;;;;;4.32;100.00;98290.31;5046276;28;20069;-48
2022/03/19 02:49:35;;;;;;;76.82;42.85;;;;;;;4.16;100.00;98289.22;5048383;28;20069;-47
2022/03/19 02:52:04;;;;;;;76.82;41.55;;;;;;;4.22;100.00;98283.78;5047703;28;20076;-46
2022/03/19 02:54:33;;;;;;;73.43;39.25;;;;;;;4.12;100.00;98292.88;5048271;28;20079;-53
2022/03/19 02:57:03;;;;;;;77.25;41.30;;;;;;;4.03;100.00;98294.94;5048565;28;20084;-48
2022/03/19 02:59:33;;;;;;;79.40;41.95;;;;;;;4.04;100.00;98295.78;5048074;28;20081;-46
2022/03/19 03:02:03;;;;;;;77.15;42.58;;;;;;;4.12;100.00;98288.50;5047452;28;20076;-53
2022/03/19 03:04:32;;;;;;;;;;;;;;;4.05;100.00;98289.66;5048923;28;20065;-47
2022/03/19 03:07:01;;;;;;;70.75;36.85;;;;;;;4.10;100.00;98285.13;5048389;28;20383;-50
2022/03/19 03:09:30;;;;;;;77.45;40.40;;;;;;;4.10;100.00;98279.88;5048875;28;20065;-50
2022/03/19 03:12:01;;;;;;;72.38;37.35;;;;;;;4.09;100.00;98291.22;5047646;28;20080;-50
2022/03/19 03:14:31;;;;;;;71.15;36.08;;;;;;;4.07;100.00;98285.22;5048624;28;20072;-51
2022/03/19 03:17:00;;;;;;;66.03;36.78;;;;;;;4.05;100.00;98279.19;5047871;28;20548;-46
2022/03/19 03:19:36;;;;;;;68.30;36.00;;;;;;;4.02;100.00;98272.34;5047864;28;20048;-47
2022/03/19 03:22:04;;;;;;;64.88;34.85;;;;;;;4.02;100.00;98287.16;5047692;28;20080;-53
2022/03/19 03:24:33;;;;;;;70.30;36.92;;;;;;;4.06;100.00;98293.97;5046269;28;20065;-48
2022/03/19 03:27:01;;;;;;;68.85;38.08;;;;;;;3.93;100.00;98280.53;5047487;28;20088;-48
2022/03/19 03:29:31;;;;;;;67.30;36.67;;;;;;;3.97;100.00;98283.88;5045985;28;20080;-47
2022/03/19 03:31:59;;;;;;;67.60;34.42;;;;;;;3.96;100.00;98276.97;5047699;28;20072;-52
2022/03/19 03:34:27;;;;;;;62.20;35.72;;;;;;;3.86;100.00;98276.47;5048153;28;20068;-49
2022/03/19 03:36:55;;;;;;;56.53;30.20;;;;;;;3.88;100.00;98276.41;5048694;28;20818;-46
2022/03/19 03:39:24;;;;;;;63.63;33.70;;;;;;;3.79;100.00;98277.59;5047185;28;20064;-53
2022/03/19 03:41:52;;;;;;;66.55;33.88;;;;;;;3.88;100.00;98276.41;5051341;28;20514;-48
2022/03/19 03:44:20;;;;;;;61.80;33.35;;;;;;;3.93;100.00;98279.69;5047930;28;20157;-48
2022/03/19 03:46:50;;;;;;;62.15;33.47;;;;;;;3.86;100.00;98273.84;5045644;28;20068;-45
2022/03/19 03:49:18;;;;;;;62.30;32.90;;;;;;;3.66;100.00;98284.19;5046260;28;20084;-47
2022/03/19 03:51:46;;;;;;;58.80;30.83;;;;;;;3.60;100.00;98276.59;5047277;28;20061;-48
2022/03/19 03:54:15;;;;;;;58.50;31.98;;;;;;;3.58;100.00;98281.88;5047468;28;20091;-46
2022/03/19 03:56:43;;;;;;;63.08;32.80;;;;;;;3.66;100.00;98272.00;5054618;28;20072;-44
2022/03/19 03:59:11;;;;;;;59.80;32.97;;;;;;;3.63;100.00;98274.72;5053241;28;20542;-46
2022/03/19 04:01:40;;;;;;;52.60;27.30;;;;;;;3.59;100.00;98274.88;5054185;28;20515;-46
2022/03/19 04:04:09;;;;;;;52.97;29.40;;;;;;;3.57;100.00;98273.16;5053611;28;20064;-49
2022/03/19 04:06:38;;;;;;;59.70;30.52;;;;;;;3.76;100.00;98267.28;5054363;28;20067;-46
2022/03/19 04:09:06;;;;;;;55.25;31.42;;;;;;;3.62;100.00;98267.78;5053580;28;20539;-48
2022/03/19 04:11:34;;;;;;;55.83;29.63;;;;;;;3.83;100.00;98263.53;5051695;28;20102;-49
2022/03/19 04:14:03;;;;;;;57.00;30.27;;;;;;;3.77;100.00;98263.75;5053380;28;20215;-45
2022/03/19 04:16:32;;;;;;;56.20;30.88;;;;;;;3.70;100.00;98272.72;5054060;28;20072;-51
2022/03/19 04:19:00;;;;;;;50.88;29.98;;;;;;;3.83;100.00;98268.75;5056002;28;20069;-56
2022/03/19 04:21:30;;;;;;;55.60;31.10;;;;;;;3.69;100.00;98271.88;5053590;28;20068;-49
2022/03/19 04:23:58;;;;;;;53.95;31.10;;;;;;;3.73;100.00;98264.78;5052904;28;20077;-46
2022/03/19 04:26:26;;;;;;;57.08;30.58;;;;;;;3.55;100.00;98263.72;5052878;28;20093;-49
2022/03/19 04:28:55;;;;;;;53.78;29.35;;;;;;;3.48;100.00;98270.91;5053392;28;20436;-45
2022/03/19 04:31:23;;;;;;;54.58;30.40;;;;;;;3.49;100.00;98266.53;5053917;28;20064;-45
2022/03/19 04:33:52;;;;;;;52.17;29.40;;;;;;;3.61;100.00;98260.00;5053677;28;20068;-48
2022/03/19 04:36:31;;;;;;;54.58;30.02;;;;;;;3.31;100.00;98263.69;5053531;28;20060;-48
2022/03/19 04:39:02;;;;;;;51.47;28.73;;;;;;;3.32;100.00;98256.72;5053199;28;20080;-48
2022/03/19 04:41:32;;;;;;;51.05;29.35;;;;;;;3.25;100.00;98253.47;5056938;28;20093;-47
2022/03/19 04:44:00;;;;;;;55.08;30.45;;;;;;;3.25;100.00;98253.47;5052853;28;20499;-50
2022/03/19 04:46:28;;;;;;;52.28;28.88;;;;;;;3.28;100.00;98253.38;5052404;28;20083;-54
2022/03/19 04:48:57;;;;;;;57.22;28.75;;;;;;;3.20;100.00;98254.53;5053251;28;20514;-50
2022/03/19 04:51:30;;;;;;;54.03;28.05;;;;;;;3.21;100.00;98257.13;5053630;28;20060;-51
2022/03/19 04:53:59;;;;;;;52.28;29.38;;;;;;;3.14;100.00;98249.56;5053201;28;20076;-51
2022/03/19 04:56:29;;;;;;;52.47;28.38;;;;;;;3.09;100.00;98257.53;5054374;28;20081;-50
2022/03/19 04:59:00;;;;;;;56.17;31.73;;;;;;;2.94;100.00;98256.31;5051760;28;20511;-50
2022/03/19 05:01:29;;;;;;;49.08;26.02;;;;;;;2.93;100.00;98256.41;5047048;28;20077;-54
2022/03/19 05:03:59;;;;;;;51.07;27.77;;;;;;;2.90;100.00;98253.91;5053381;28;20053;-47
2022/03/19 05:06:27;;;;;;;50.40;27.70;;;;;;;2.97;100.00;98252.78;5050739;28;20586;-50
2022/03/19 05:11:39;;;;;;;50.05;28.95;;;;;;;2.87;100.00;98246.19;5047496;28;20095;-49
2022/03/19 05:14:07;;;;;;;53.38;27.92;;;;;;;2.93;100.00;98248.56;5049546;28;20064;-48
2022/03/19 05:16:35;;;;;;;51.63;28.80;;;;;;;2.85;100.00;98247.06;5050535;28;20069;-46
2022/03/19 05:19:04;;;;;;;47.42;26.02;;;;;;;2.76;100.00;98244.78;5049434;28;20087;-50
2022/03/19 05:21:32;;;;;;;49.13;27.55;;;;;;;2.74;100.00;98250.94;5050006;28;20060;-53
2022/03/19 05:24:00;;;;;;;56.17;30.50;;;;;;;2.76;100.00;98246.56;5049704;28;20088;-50
2022/03/19 05:26:29;;;;;;;53.58;29.77;;;;;;;2.67;100.00;98249.44;5047972;28;20107;-56
2022/03/19 05:28:58;;;;;;;51.97;29.52;;;;;;;2.72;100.00;98247.53;5053146;28;20068;-53
2022/03/19 05:31:39;;;;;;;53.22;29.20;;;;;;;2.76;100.00;98243.94;5049386;28;20182;-49
2022/03/19 05:36:53;;;;;;;49.38;29.52;;;;;;;2.84;100.00;98244.53;5049750;28;20068;-52
2022/03/19 05:39:21;;;;;;;50.45;29.23;;;;;;;2.84;100.00;98237.56;5048813;28;20076;-53
2022/03/19 05:41:50;;;;;;;52.00;29.88;;;;;;;2.88;100.00;98242.66;5049505;28;20107;-54
2022/03/19 05:44:19;;;;;;;52.80;28.08;;;;;;;3.08;100.00;98243.66;5049537;28;20073;-51
2022/03/19 05:46:48;;;;;;;46.40;25.87;;;;;;;2.96;100.00;98244.09;5050012;28;20065;-55
2022/03/19 05:49:17;;;;;;;48.88;25.77;;;;;;;3.01;100.00;98234.34;5048634;28;20072;-51
2022/03/19 05:51:45;;;;;;;47.97;26.35;;;;;;;3.06;100.00;98235.06;5049925;28;20061;-46
2022/03/19 05:54:13;;;;;;;49.97;29.60;;;;;;;2.93;100.00;98239.00;5049007;28;20060;-48
2022/03/19 05:56:41;;;;;;;48.05;26.23;;;;;;;3.11;100.00;98221.84;5050084;28;20459;-49
2022/03/19 05:59:10;;;;;;;42.55;24.85;;;;;;;3.18;100.00;98223.34;5048247;28;20465;-49
2022/03/19 06:01:41;;;;;;;44.13;25.13;;;;;;;3.20;100.00;98221.53;5049172;28;20309;-49
2022/03/19 06:04:10;;;;;;;46.33;25.83;;;;;;;3.36;100.00;98223.56;5048859;28;20471;-46
2022/03/19 06:06:38;;;;;;;39.92;22.48;;;;;;;3.41;100.00;98219.03;5049353;28;20551;-50
2022/03/19 06:09:07;;;;;;;46.35;25.20;;;;;;;3.55;100.00;98225.44;5048515;28;20550;-54
2022/03/19 06:11:35;;;;;;;43.88;24.30;;;;;;;3.59;100.00;98220.94;5050014;28;20060;-55
2022/03/19 06:14:04;;;;;;;42.75;24.58;;;;;;;3.59;100.00;98215.72;5048756;28;20088;-48
2022/03/19 06:16:32;;;;;;;43.65;24.83;;;;;;;3.70;100.00;98215.31;5048295;28;20056;-51
2022/03/19 06:19:02;;;;;;;38.92;23.00;;;;;;;3.87;100.00;98214.69;5048278;28;20060;-51
2022/03/19 06:21:30;;;;;;;42.20;23.65;;;;;;;3.96;100.00;98215.16;5046928;28;20056;-49
2022/03/19 06:23:58;;;;;;;35.53;19.27;;;;;;;3.88;100.00;98214.59;5049318;28;20069;-49
2022/03/19 06:26:26;;;;;;;35.50;19.85;;;;;;;4.02;100.00;98217.50;5049349;28;20088;-53
2022/03/19 06:28:55;;;;;;;39.38;22.17;;;;;;;4.17;100.00;98208.25;5048084;28;20147;-49
2022/03/19 06:31:23;;;;;;;39.40;23.42;;;;;;;4.29;100.00;98204.25;5048515;28;20474;-47
2022/03/19 06:33:51;;;;;;;41.90;24.75;;;;;;;4.45;100.00;98207.94;5049684;28;20061;-50
2022/03/19 06:39:07;;;;;;;45.17;25.50;;;;;;;4.30;100.00;98211.19;5046145;28;20061;-53
2022/03/19 06:41:36;;;;;;;37.92;21.92;;;;;;;4.35;100.00;98211.84;5052726;28;20085;-50
2022/03/19 06:44:04;;;;;;;38.38;23.17;;;;;;;4.41;100.00;98216.00;5048169;28;20072;-55
2022/03/19 06:46:33;;;;;;;39.15;23.50;;;;;;;4.62;100.00;98209.88;5048693;28;20065;-48
2022/03/19 06:49:01;;;;;;;39.25;23.17;;;;;;;4.83;100.00;98202.03;5048069;28;20064;-51
2022/03/19 06:51:31;;;;;;;42.75;23.98;;;;;;;4.97;100.00;98194.44;5047429;28;20457;-52
2022/03/19 06:53:59;;;;;;;38.83;22.75;;;;;;;4.98;100.00;98193.50;5048504;28;20084;-52
2022/03/19 06:56:28;;;;;;;41.33;25.20;;;;;;;4.80;100.00;98199.53;5048946;28;20124;-50
2022/03/19 06:58:57;;;;;;;42.22;25.35;;;;;;;4.97;100.00;98189.19;5047558;28;20072;-53
2022/03/19 07:01:25;;;;;;;33.90;20.75;;;;;;;5.00;100.00;98192.53;5047643;28;20080;-52
2022/03/19 07:03:54;;;;;;;40.83;23.15;;;;;;;5.21;100.00;98192.50;5048482;28;20075;-54
2022/03/19 07:06:22;;;;;;;40.10;24.90;;;;;;;5.00;100.00;98189.91;5047953;28;20077;-50
2022/03/19 07:09:11;;;;;;;40.35;22.80;;;;;;;5.34;100.00;98184.94;5047642;28;20545;-53
2022/03/19 07:11:40;;;;;;;35.13;22.80;;;;;;;5.42;100.00;98185.44;5048138;28;20077;-47
2022/03/19 07:14:09;;;;;;;42.22;23.75;;;;;;;5.19;100.00;98182.09;5044220;28;20071;-52
2022/03/19 07:16:38;;;;;;;39.55;24.05;;;;;;;5.45;100.00;98183.53;5047477;28;20079;-50
2022/03/19 07:19:07;;;;;;;38.72;23.90;;;;;;;5.66;100.00;98180.84;5047788;28;20452;-51
2022/03/19 07:21:35;;;;;;;37.47;22.17;;;;;;;5.66;100.00;98175.59;5047911;28;20084;-46
2022/03/19 07:24:04;;;;;;;44.65;24.88;;;;;;;5.67;100.00;98182.53;5048346;28;20068;-53
2022/03/19 07:26:34;;;;;;;40.10;24.73;;;;;;;5.58;100.00;98175.13;5047987;28;20076;-45
2022/03/19 07:29:02;;;;;;;39.60;25.20;;;;;;;5.53;100.00;98177.94;5046970;28;20076;-53
2022/03/19 07:31:30;;;;;;;40.75;26.23;;;;;;;5.44;100.00;98176.59;5047641;28;20479;-47
2022/03/19 07:33:59;;;;;;;44.13;25.65;;;;;;;5.75;100.00;98182.16;5047482;28;20060;-50
2022/03/19 07:36:28;;;;;;;35.85;22.08;;;;;;;5.34;100.00;98174.50;5046021;28;20065;-52
2022/03/19 07:38:56;;;;;;;37.88;23.90;;;;;;;5.70;100.00;98169.31;5045029;28;20084;-52
2022/03/19 07:44:12;;;;;;;39.50;23.20;;;;;;;5.58;100.00;98182.97;5046875;28;20469;-53
2022/03/19 07:46:42;;;;;;;36.53;22.63;;;;;;;5.81;100.00;98167.00;5046295;28;20067;-51
2022/03/19 07:49:11;;;;;;;36.67;23.15;;;;;;;5.74;100.00;98176.09;5046090;28;20083;-53
2022/03/19 07:51:41;;;;;;;31.95;20.38;;;;;;;5.99;100.00;98157.50;5047179;28;20061;-52
2022/03/19 07:54:09;;;;;;;32.40;19.15;;;;;;;6.12;100.00;98158.56;5046593;28;20071;-47
2022/03/19 07:56:37;;;;;;;37.50;22.73;;;;;;;6.22;100.00;98160.75;5047787;28;20487;-51
2022/03/19 07:59:05;;;;;;;44.92;23.23;;;;;;;6.09;100.00;98155.25;5046656;28;20073;-52
2022/03/19 08:01:35;;;;;;;35.97;22.25;;;;;;;6.75;100.00;98139.69;5046307;28;20603;-53
2022/03/19 08:04:08;;;;;;;36.60;23.92;;;;;;;6.60;100.00;98141.31;5044924;28;20072;-46
2022/03/19 08:06:37;;;;;;;33.38;20.63;;;;;;;6.45;100.00;98149.97;5047045;28;20069;-50
2022/03/19 08:09:07;;;;;;;33.13;21.70;;;;;;;6.65;99.54;98136.69;5045370;28;20061;-48
2022/03/19 08:11:35;;;;;;;31.15;20.88;;;;;;;6.66;98.89;98142.78;5046730;28;20091;-45
2022/03/19 08:14:04;;;;;;;35.50;23.88;;;;;;;6.50;98.67;98139.22;5046693;28;20841;-52
2022/03/19 08:16:32;;;;;;;37.25;23.08;;;;;;;6.66;100.00;98134.91;5046323;28;20119;-45
2022/03/19 08:19:03;;;;;;;38.35;23.05;;;;;;;6.78;100.00;98131.66;5045955;28;20068;-49
2022/03/19 08:21:31;;;;;;;32.60;21.08;;;;;;;7.06;96.71;98130.22;5046413;28;20067;-46
2022/03/19 08:24:00;;;;;;;34.53;22.23;;;;;;;6.95;92.38;98124.66;5046227;28;20140;-49
2022/03/19 08:26:28;;;;;;;37.15;22.52;;;;;;;6.85;93.62;98119.94;5047105;28;20092;-48
2022/03/19 08:28:56;;;;;;;32.45;19.95;;;;;;;7.30;85.88;98122.81;5046286;28;20069;-48
2022/03/19 08:31:24;;;;;;;34.17;20.65;;;;;;;7.38;86.70;98110.94;5045379;28;20140;-51
2022/03/19 08:33:54;;;;;;;29.90;19.05;;;;;;;7.32;82.96;98115.69;5045838;28;20064;-50
2022/03/19 08:36:24;;;;;;;29.05;19.65;;;;;;;7.34;64.45;98113.81;5046629;28;20065;-46
2022/03/19 08:41:38;;;;;;;30.60;19.75;;;;;;;7.62;62.75;98105.28;5048347;28;20076;-48
2022/03/19 08:44:07;;;;;;;26.55;14.68;;;;;;;7.74;61.23;98109.84;5050103;28;20107;-47
2022/03/19 08:46:35;;;;;;;26.20;17.23;;;;;;;7.78;56.51;98100.84;5060546;28;20072;-48
2022/03/19 08:49:04;;;;;;;29.13;17.92;;;;;;;8.14;57.31;98115.44;5064973;28;20077;-51
2022/03/19 08:51:42;;;;;;;28.02;17.67;;;;;;;7.99;57.12;98111.91;5049837;28;20061;-47
2022/03/19 08:54:12;;;;;;;25.38;17.38;;;;;;;8.65;55.83;98104.59;5048153;28;20069;-47
2022/03/19 08:56:40;;;;;;;25.02;17.20;;;;;;;8.25;51.13;98101.66;5049390;28;20076;-52
2022/03/19 08:59:09;;;;;;;22.58;15.75;;;;;;;8.22;51.57;98107.94;5047531;28;20087;-48
2022/03/19 09:01:39;;;;;;;20.35;13.70;;;;;;;8.03;51.05;98100.28;5047835;28;20064;-49
2022/03/19 09:04:08;;;;;;;23.92;17.65;;;;;;;7.98;49.25;98097.09;5044621;28;20136;-45
2022/03/19 09:06:39;;;;;;;24.60;16.30;;;;;;;8.32;48.75;98103.00;5047663;28;20732;-46
2022/03/19 09:09:07;;;;;;;25.13;16.23;;;;;;;8.34;47.25;98103.75;5049243;28;20060;-46
2022/03/19 09:11:36;;;;;;;22.90;15.82;;;;;;;8.46;47.79;98089.06;5049753;28;20091;-46
2022/03/19 09:14:06;;;;;;;22.95;13.25;;;;;;;8.31;47.67;98088.16;5047924;28;20075;-48
2022/03/19 09:16:36;;;;;;;25.38;15.13;;;;;;;8.33;47.70;98081.91;5049134;28;20061;-46
2022/03/19 09:19:05;;;;;;;22.35;14.93;;;;;;;8.74;47.69;98073.34;5048200;28;20110;-48
2022/03/19 09:21:34;;;;;;;26.10;16.38;;;;;;;8.86;47.40;98068.25;5048436;28;20076;-50
2022/03/19 09:24:05;;;;;;;22.75;14.82;;;;;;;9.14;46.19;98067.38;5049424;28;20095;-48
2022/03/19 09:26:34;;;;;;;28.23;17.05;;;;;;;9.22;46.52;98071.25;5047186;28;20519;-52
2022/03/19 09:29:03;;;;;;;24.00;16.55;;;;;;;9.35;45.68;98065.19;5048920;28;20068;-48
2022/03/19 09:31:31;;;;;;;22.45;15.75;;;;;;;9.30;45.02;98059.38;5048716;28;20063;-46
2022/03/19 09:33:59;;;;;;;23.20;15.75;;;;;;;9.33;44.67;98057.41;5048763;28;20060;-53
2022/03/19 09:36:28;;;;;;;24.50;15.70;;;;;;;9.48;43.70;98051.16;5047950;28;20068;-51
2022/03/19 09:38:56;;;;;;;25.77;16.05;;;;;;;9.64;43.43;98051.00;5048636;28;20072;-55
2022/03/19 09:41:26;;;;;;;24.67;16.63;;;;;;;9.51;44.84;98050.94;5048282;28;20076;-49
2022/03/19 09:43:57;;;;;;;25.42;16.27;;;;;;;9.36;44.06;98048.44;5048818;28;20136;-45
2022/03/19 09:46:26;;;;;;;24.15;14.73;;;;;;;9.18;44.08;98039.94;5048145;28;20057;-48
2022/03/19 09:48:54;;;;;;;23.77;16.90;;;;;;;8.93;43.31;98028.31;5048071;28;20474;-49
2022/03/19 09:51:23;;;;;;;23.13;16.83;;;;;;;9.08;44.41;98037.03;5048023;28;20182;-46
2022/03/19 09:53:52;;;;;;;23.88;16.25;;;;;;;9.46;43.16;98036.38;5048503;28;20084;-48
2022/03/19 09:56:37;;;;;;;23.48;15.80;;;;;;;9.30;42.38;98031.28;5047866;28;20085;-52
2022/03/19 09:59:06;;;;;;;23.88;15.73;;;;;;;9.24;42.25;98024.59;5048089;28;20064;-53
2022/03/19 10:01:38;;;;;;;18.83;13.02;;;;;;;9.35;40.63;98029.16;5048707;28;20063;-46
2022/03/19 10:04:08;;;;;;;23.60;14.82;;;;;;;9.69;40.38;98022.56;5048112;28;20741;-46
2022/03/19 10:09:41;;;;;;;21.67;13.82;;;;;;;9.58;39.36;98016.31;5046707;28;20062;-48
2022/03/19 10:12:15;;;;;;;22.38;16.88;;;;;;;9.44;40.47;98011.94;5048067;28;20640;-49
2022/03/19 10:14:46;;;;;;;20.80;14.05;;;;;;;9.17;39.59;98004.88;5046874;28;20080;-45
2022/03/19 10:17:29;;;;;;;19.63;13.00;;;;;;;9.24;40.19;98007.97;5046328;28;20080;-47
2022/03/19 10:19:59;;;;;;;22.60;14.13;;;;;;;9.50;39.78;97998.41;5047277;28;20076;-45
2022/03/19 10:22:29;;;;;;;22.10;14.55;;;;;;;9.95;38.77;97996.28;5044735;28;20069;-45
2022/03/19 10:24:59;;;;;;;20.90;14.02;;;;;;;9.88;38.53;97987.94;5048035;28;20076;-45
2022/03/19 10:27:36;;;;;;;21.57;14.67;;;;;;;10.20;37.63;97979.66;5044829;28;20079;-47
2022/03/19 10:30:11;;;;;;;20.15;13.68;;;;;;;10.21;36.96;97976.91;5046973;28;20084;-47
2022/03/19 10:32:40;;;;;;;18.55;14.20;;;;;;;10.08;36.55;97983.13;5048472;28;20092;-46
2022/03/19 10:35:26;;;;;;;22.55;14.30;;;;;;;9.81;37.70;97972.66;5047772;28;20069;-48
2022/03/19 10:37:55;;;;;;;17.98;13.38;;;;;;;10.50;37.58;97970.63;5047414;28;20057;-48
2022/03/19 10:40:24;;;;;;;22.13;13.38;;;;;;;10.76;37.71;97971.41;5047676;28;20072;-51
2022/03/19 10:42:58;;;;;;;25.35;14.57;;;;;;;10.45;36.98;97963.84;5047261;28;20440;-48
2022/03/19 10:45:26;;;;;;;20.67;14.18;;;;;;;10.21;37.04;97961.09;5047287;28;20182;-49
2022/03/19 10:47:54;;;;;;;19.38;13.73;;;;;;;10.22;37.14;97957.53;5047398;28;20065;-53
2022/03/19 10:50:24;;;;;;;20.98;12.90;;;;;;;10.49;37.25;97946.00;5047443;28;20104;-51
2022/03/19 10:52:54;;;;;;;23.05;13.57;;;;;;;10.29;37.64;97939.53;5044667;28;20084;-48
2022/03/19 10:55:22;;;;;;;20.80;14.07;;;;;;;10.63;37.81;97938.00;5047099;28;20144;-51
2022/03/19 10:57:50;;;;;;;20.75;13.77;;;;;;;10.40;39.06;97936.97;5047285;28;20064;-53
2022/03/19 11:00:24;;;;;;;21.27;15.02;;;;;;;10.53;38.50;97936.09;5047112;28;20087;-47
2022/03/19 11:02:54;;;;;;;24.67;15.10;;;;;;;10.80;37.77;97922.75;5047449;28;20056;-51
2022/03/19 11:05:24;;;;;;;19.13;13.05;;;;;;;10.89;36.13;97917.66;5046525;28;20505;-47
2022/03/19 11:07:53;;;;;;;20.85;11.45;;;;;;;10.61;37.52;97921.41;5047632;28;20069;-49
2022/03/19 11:10:21;;;;;;;20.42;14.18;;;;;;;10.66;37.37;97900.81;5045580;28;20072;-50
2022/03/19 11:12:51;;;;;;;21.75;14.20;;;;;;;10.68;36.63;97893.66;5046126;28;20056;-54
2022/03/19 11:15:20;;;;;;;21.20;14.75;;;;;;;10.84;37.02;97888.13;5045781;28;20068;-50
2022/03/19 11:17:52;;;;;;;21.98;14.10;;;;;;;10.44;37.73;97882.22;5047529;28;20082;-46
2022/03/19 11:20:21;;;;;;;19.58;13.73;;;;;;;10.72;38.32;97889.00;5046026;28;20045;-46
2022/03/19 11:22:51;;;;;;;18.92;12.75;;;;;;;10.68;38.26;97872.53;5045104;28;20072;-52
2022/03/19 11:25:27;;;;;;;21.00;13.48;;;;;;;10.94;37.77;97869.78;5046698;28;20523;-45
2022/03/19 11:27:58;;;;;;;18.13;13.85;;;;;;;10.72;36.26;97869.69;5046796;28;20574;-51
2022/03/19 11:30:28;;;;;;;19.80;13.98;;;;;;;10.55;36.12;97868.25;5046287;28;20512;-49
2022/03/19 11:33:06;;;;;;;18.23;12.90;;;;;;;10.75;35.99;97858.91;5045238;28;20084;-50
2022/03/19 11:35:36;;;;;;;19.73;13.80;;;;;;;10.81;37.18;97847.91;5045838;28;20084;-52
2022/03/19 11:38:10;;;;;;;19.52;13.70;;;;;;;10.63;36.80;97853.56;5046720;28;20067;-49
2022/03/19 11:40:42;;;;;;;20.95;12.50;;;;;;;10.75;36.42;97838.63;5045931;28;20060;-49
2022/03/19 11:43:19;;;;;;;21.90;13.73;;;;;;;11.00;36.23;97837.69;5045840;28;20069;-50
2022/03/19 11:45:55;;;;;;;16.10;10.75;;;;;;;10.97;36.64;97843.19;5046999;28;20079;-49
2022/03/19 11:48:47;;;;;;;21.50;14.60;;;;;;;10.86;35.70;97829.94;5046291;28;20076;-48
2022/03/19 11:51:37;;;;;;;17.98;12.85;;;;;;;10.84;35.80;97831.84;5045757;28;20065;-49